Latest Weather Observations for Warburton

IDW60801

Issued at 11:35 pm WST Friday 31 October 2014 (issued every 30 minutes, with the page automatically refreshed every 10 minutes)

About weather observations | Map of weather stations | Latest weather observations for WA | Other Formats
Station Details ID: 013011 Name: WARBURTON AIRFIELD Lat: -26.13 Lon: 126.58 Height: 459.0 m
Data from the previous 72 hours. | See also: Recent months at Warburton
Date/Time
WST
Temp
°C
App
Temp
°C
Dew
Point
Rel
Hum
%
Delta-T
°C
Wind Press
QNH
hPa
Press
MSL
hPa
Rain
since 9 am
mm
Dir
 
Spd
km/h
Gust
km/h
Spd
kts
Gust
kts
31/11:30pm 23.6 18.2 11.0 45 7.2 SE 30 39 16 21 1014.4 - 0.0
31/11:00pm 24.0 18.6 11.0 44 7.4 SE 30 41 16 22 1014.2 - 0.0
31/10:42pm 24.3 19.3 10.9 43 7.6 SE 28 46 15 25 1014.1 - 0.0
31/10:30pm 24.5 19.8 10.8 42 7.8 SSE 26 35 14 19 1014.1 - 0.0
31/10:00pm 25.0 20.1 11.2 42 7.9 SSE 28 39 15 21 1014.0 - 0.0
31/09:34pm 25.8 20.5 11.2 40 8.4 SSE 30 48 16 26 1013.5 - 0.0
31/09:30pm 25.9 20.5 10.9 39 8.6 SSE 30 43 16 23 1013.5 - 0.0
31/09:04pm 26.8 21.8 10.9 37 9.2 SSE 28 48 15 26 1013.0 - 0.0
31/09:00pm 26.9 21.9 11.0 37 9.2 SSE 28 44 15 24 1012.9 1010.4 0.0
31/08:30pm 27.9 23.7 11.0 35 9.8 S 24 39 13 21 1012.1 - 0.0
31/08:00pm 28.8 22.8 10.9 33 10.4 S 33 48 18 26 1011.6 - 0.0
31/07:32pm 31.5 25.1 5.1 19 14.2 SSW 28 46 15 25 1010.6 - 0.0
31/07:30pm 31.8 25.0 1.0 14 15.5 SSW 26 35 14 19 1010.4 - 0.0
31/07:00pm 32.6 25.9 1.7 14 15.8 SSW 26 33 14 18 1009.8 - 0.0
31/06:30pm 33.3 27.9 2.2 14 16.1 SSW 20 30 11 16 1009.1 - 0.0
31/06:00pm 34.1 28.8 2.8 14 16.4 SW 20 28 11 15 1008.5 1006.0 0.0
31/05:30pm 35.0 29.8 2.5 13 17.0 W 19 26 10 14 1008.0 - 0.0
31/05:00pm 35.9 30.1 2.1 12 17.7 W 22 43 12 23 1007.5 - 0.0
31/04:31pm 36.3 29.0 2.4 12 17.9 W 30 48 16 26 1007.1 - 0.0
31/04:30pm 36.2 28.5 2.3 12 17.8 W 32 48 17 26 1007.1 - 0.0
31/04:27pm 36.0 28.6 2.1 12 17.8 W 30 48 16 26 1007.1 - 0.0
31/04:00pm 35.6 28.4 3.0 13 17.3 WSW 30 43 16 23 1007.0 - 0.0
31/03:30pm 35.4 27.2 2.8 13 17.2 WSW 35 48 19 26 1006.8 - 0.0
31/03:17pm 36.4 27.8 2.4 12 17.9 SW 37 48 20 26 1006.8 - 0.0
31/03:00pm 36.9 30.2 1.6 11 18.5 W 26 39 14 21 1006.9 1004.4 0.0
31/02:30pm 37.6 31.4 2.1 11 18.8 WNW 24 39 13 21 1006.6 - 0.0
31/02:00pm 37.2 29.4 3.1 12 18.3 WNW 33 43 18 23 1006.9 - 0.0
31/01:55pm 37.6 30.9 3.4 12 18.5 W 28 43 15 23 1007.0 - 0.0
31/01:30pm 35.1 31.6 5.5 16 16.3 WSW 13 20 7 11 1007.4 - 0.0
31/01:00pm 36.4 29.1 4.6 14 17.4 WSW 32 54 17 29 1007.7 - 0.0
31/12:59pm 36.5 29.6 4.7 14 17.4 W 30 48 16 26 1007.5 - 0.0
31/12:53pm 37.1 30.5 4.1 13 18.0 WNW 28 43 15 23 1007.3 - 0.0
31/12:30pm 36.8 32.0 4.9 14 17.5 WNW 19 22 10 12 1007.9 - 0.0
31/12:00pm 36.9 33.2 7.8 17 16.8 NW 17 30 9 16 1008.3 1005.8 0.0
31/11:30am 37.3 33.3 8.2 17 16.9 WNW 19 32 10 17 1008.6 - 0.0
31/11:00am 35.8 30.9 7.0 17 16.3 NNW 22 37 12 20 1009.1 - 0.0
31/10:30am 35.7 30.0 8.5 19 15.7 NNW 28 37 15 20 1009.5 - 0.0
31/10:00am 34.7 29.8 8.4 20 15.1 NW 24 37 13 20 1010.1 - 0.0
31/09:30am 34.8 29.1 9.9 22 14.6 NNW 30 41 16 22 1010.2 - 0.0
31/09:00am 33.7 28.1 10.3 24 13.8 N 30 41 16 22 1010.2 1007.7 1.4
31/08:30am 32.4 27.2 11.6 28 12.4 N 30 41 16 22 1010.4 - 1.4
31/08:00am 31.0 25.4 11.4 30 11.6 N 32 41 17 22 1010.2 - 1.4
31/07:30am 31.1 26.0 12.0 31 11.4 N 30 41 16 22 1010.3 - 1.4
31/07:00am 29.5 25.8 11.5 33 10.6 N 22 30 12 16 1010.1 - 1.4
31/06:30am 27.2 25.4 10.8 36 9.5 N 11 15 6 8 1009.8 - 1.4
31/06:00am 26.4 23.7 10.5 37 9.1 N 15 22 8 12 1009.6 1007.1 1.4
31/05:30am 25.0 22.7 10.5 40 8.2 N 13 19 7 10 1009.3 - 1.4
31/05:00am 24.2 21.8 10.1 41 7.9 N 13 17 7 9 1009.0 - 1.4
31/04:30am 24.1 21.7 10.0 41 7.9 NNE 13 17 7 9 1008.7 - 1.4
31/04:00am 24.0 21.7 10.3 42 7.7 NNE 13 17 7 9 1008.3 - 1.4
31/03:30am 22.5 21.4 10.6 47 6.7 N 7 9 4 5 1008.1 - 1.4
31/03:00am 23.1 22.2 11.2 47 6.8 N 7 9 4 5 1008.0 1005.4 1.4
31/02:30am 23.8 22.5 11.2 45 7.2 N 9 13 5 7 1008.0 - 1.4
31/02:00am 23.9 23.1 11.6 46 7.1 NNW 7 9 4 5 1008.0 - 1.4
31/01:30am 24.9 23.3 11.5 43 7.7 N 11 13 6 7 1007.8 - 1.4
31/01:00am 25.8 24.2 11.6 41 8.2 N 11 15 6 8 1007.5 - 1.4
31/12:30am 26.3 24.0 11.6 40 8.6 N 15 20 8 11 1007.7 - 1.4
31/12:00am 27.1 25.0 11.2 37 9.2 NNE 13 20 7 11 1008.1 1005.5 1.4
 
Date/Time
WST
Temp
°C
App
Temp
°C
Dew
Point
Rel
Hum
%
Delta-T
°C
Wind Press
QNH
hPa
Press
MSL
hPa
Rain
since 9 am
mm
Dir
 
Spd
km/h
Gust
km/h
Spd
kts
Gust
kts
30/11:30pm 27.8 25.8 10.1 33 10.1 NNE 11 15 6 8 1008.4 - 1.4
30/11:00pm 28.3 26.0 10.5 33 10.3 NNE 13 17 7 9 1008.8 - 1.4
30/10:30pm 28.5 26.0 11.1 34 10.1 NNE 15 20 8 11 1009.1 - 1.4
30/10:00pm 28.0 25.9 12.4 38 9.3 NNE 15 20 8 11 1009.2 - 1.4
30/09:30pm 27.5 26.9 13.4 41 8.5 NNE 9 13 5 7 1009.4 - 1.4
30/09:00pm 27.4 26.1 13.7 43 8.3 N 13 20 7 11 1009.4 1006.9 1.4
30/08:30pm 27.7 25.8 12.9 40 8.8 NNE 15 20 8 11 1009.3 - 1.4
30/08:00pm 27.8 25.9 13.0 40 8.9 NE 15 20 8 11 1009.2 - 1.4
30/07:30pm 28.5 25.9 13.2 39 9.2 NE 19 30 10 16 1009.2 - 1.4
30/07:00pm 29.1 28.1 14.5 41 9.0 NNE 13 15 7 8 1009.0 - 1.4
30/06:30pm 28.5 30.6 17.1 50 7.3 SSE 2 11 1 6 1008.8 - 1.4
30/06:00pm 32.0 29.1 12.8 31 11.7 SW 20 35 11 19 1008.7 1006.2 1.4
30/05:30pm 30.9 34.2 21.4 57 6.5 WNW 6 9 3 5 1007.7 - 1.4
30/05:00pm 31.0 32.8 18.7 48 8.1 SSW 7 15 4 8 1007.4 - 1.4
30/04:40pm 31.7 29.3 14.4 35 10.7 W 20 44 11 24 1007.9 - 0.8
30/04:30pm 37.2 33.1 6.3 15 17.4 W 17 24 9 13 1007.2 - 0.0
30/04:00pm 37.7 33.1 5.6 14 17.9 NW 19 26 10 14 1007.3 - 0.0
30/03:30pm 38.0 33.5 5.9 14 18.0 W 19 24 10 13 1007.5 - 0.0
30/03:00pm 38.1 33.6 6.0 14 18.1 WNW 19 24 10 13 1008.1 1005.5 0.0
30/02:30pm 37.9 34.5 5.8 14 18.0 W 13 28 7 15 1008.5 - 0.0
30/02:00pm 38.3 33.8 6.1 14 18.2 N 19 32 10 17 1008.8 - 0.0
30/01:30pm 38.7 33.3 6.4 14 18.3 NNW 24 32 13 17 1009.2 - 0.0
30/01:00pm 37.6 34.0 6.6 15 17.6 NNW 15 28 8 15 1009.6 - 0.0
30/12:30pm 37.5 32.5 6.5 15 17.5 NW 22 32 12 17 1010.2 - 0.0
30/12:00pm 37.3 33.1 7.3 16 17.2 NNW 19 39 10 21 1010.5 1008.0 0.0
30/11:30am 36.9 31.6 7.0 16 17.0 NNW 24 44 13 24 1010.9 - 0.0
30/11:00am 36.1 31.3 7.2 17 16.4 N 22 35 12 19 1011.4 - 0.0
30/10:30am 36.8 31.5 6.9 16 16.9 N 24 41 13 22 1011.9 - 0.0
30/10:15am 37.2 31.4 8.1 17 16.8 NNE 28 46 15 25 1012.1 - 0.0
30/10:00am 36.7 31.4 8.5 18 16.4 NNE 26 37 14 20 1012.5 - 0.0
30/09:30am 34.8 29.7 9.3 21 14.9 NE 26 33 14 18 1013.1 - 0.0
30/09:00am 32.7 27.7 9.5 24 13.4 NE 26 37 14 20 1013.6 1011.1 0.2
30/08:30am 31.5 26.3 10.2 27 12.4 NE 28 39 15 21 1013.9 - 0.2
30/08:00am 30.5 24.4 10.5 29 11.6 ENE 33 46 18 25 1014.0 - 0.2
30/07:30am 28.8 24.1 10.5 32 10.6 ENE 26 44 14 24 1014.1 - 0.2
30/07:00am 26.4 21.5 10.1 36 9.3 ENE 26 39 14 21 1014.1 - 0.2
30/06:30am 25.7 20.9 10.3 38 8.7 ENE 26 39 14 21 1013.8 - 0.2
30/06:00am 25.5 20.6 10.1 38 8.7 ENE 26 39 14 21 1013.7 1011.2 0.2
30/05:30am 25.5 20.2 9.7 37 8.9 ENE 28 41 15 22 1013.8 - 0.2
30/05:19am 25.4 20.2 10.1 38 8.6 ENE 28 46 15 25 1013.6 - 0.2
30/05:00am 25.4 23.0 10.1 38 8.6 E 13 30 7 16 1015.0 - 0.2
30/04:30am 25.1 20.8 10.9 41 8.1 ENE 24 39 13 21 1013.7 - 0.2
30/04:00am 22.7 19.1 13.2 55 5.6 E 24 35 13 19 1014.8 - 0.2
30/03:30am 23.1 22.7 14.1 57 5.4 ESE 9 13 5 7 1016.3 - 0.0
30/03:00am 24.1 21.9 12.1 47 7.0 S 15 20 8 11 1016.1 1013.7 0.0
30/02:30am 25.4 21.3 10.1 38 8.6 S 22 32 12 17 1015.8 - 0.0
30/02:00am 27.1 21.6 6.0 26 11.2 SSW 24 33 13 18 1015.4 - 0.0
30/01:30am 27.8 23.0 4.8 23 12.0 SW 19 33 10 18 1015.3 - 0.0
30/01:00am 27.9 23.0 4.2 22 12.3 SW 19 20 10 11 1015.1 - 0.0
30/12:30am 28.2 25.1 3.8 21 12.6 SE 9 15 5 8 1014.2 - 0.0
30/12:00am 28.5 23.8 3.4 20 12.9 E 17 26 9 14 1013.6 1011.1 0.0
 
Date/Time
WST
Temp
°C
App
Temp
°C
Dew
Point
Rel
Hum
%
Delta-T
°C
Wind Press
QNH
hPa
Press
MSL
hPa
Rain
since 9 am
mm
Dir
 
Spd
km/h
Gust
km/h
Spd
kts
Gust
kts
29/11:30pm 28.7 23.4 4.9 22 12.5 E 22 35 12 19 1013.4 - 0.0
29/11:00pm 28.9 23.0 5.7 23 12.4 E 26 41 14 22 1013.3 - 0.0
29/10:30pm 29.1 23.5 7.1 25 12.0 ESE 26 39 14 21 1014.1 - 0.0
29/10:00pm 29.3 25.7 8.4 27 11.7 SSE 17 28 9 15 1015.0 - 0.0
29/09:30pm 29.6 25.7 8.6 27 11.8 ESE 19 28 10 15 1015.3 - 0.0
29/09:00pm 29.4 27.2 9.5 29 11.3 ESE 11 17 6 9 1015.7 1013.2 0.0
29/08:30pm 29.6 26.3 9.7 29 11.4 ESE 17 20 9 11 1015.1 - 0.0
29/08:00pm 29.8 26.8 9.3 28 11.7 E 15 20 8 11 1015.3 - 0.0
29/07:30pm 30.2 26.4 9.1 27 12.0 ESE 19 28 10 15 1014.9 - 0.0
29/07:00pm 30.2 26.8 9.1 27 12.0 ESE 17 24 9 13 1014.3 - 0.0
29/06:30pm 30.2 27.3 9.7 28 11.8 SSE 15 20 8 11 1014.4 - 0.0
29/06:00pm 30.7 27.3 9.0 26 12.4 SSE 17 20 9 11 1013.8 1011.3 0.0
29/05:30pm 31.4 26.9 8.4 24 13.0 S 22 37 12 20 1013.6 - 0.0
29/05:00pm 32.2 27.9 7.8 22 13.7 S 20 24 11 13 1013.7 - 0.0
29/04:30pm 32.5 28.7 7.4 21 14.0 SSE 17 26 9 14 1014.0 - 0.0
29/04:00pm 32.6 29.4 6.7 20 14.3 S 13 20 7 11 1014.2 - 0.0
29/03:30pm 32.6 27.7 6.7 20 14.3 S 22 30 12 16 1014.0 - 0.0
29/03:00pm 33.6 29.5 6.0 18 15.2 WSW 17 22 9 12 1014.4 1012.0 0.0
29/02:30pm 34.2 29.8 4.8 16 15.9 WSW 17 24 9 13 1014.2 - 0.0
29/02:00pm 34.2 29.8 4.8 16 15.9 WSW 17 22 9 12 1014.4 - 0.0
29/01:30pm 34.0 31.1 4.6 16 15.9 WSW 9 15 5 8 1014.6 - 0.0
29/01:00pm 34.1 30.4 4.7 16 15.9 WNW 13 17 7 9 1014.8 - 0.0
29/12:30pm 33.9 29.5 4.6 16 15.8 NNW 17 20 9 11 1014.9 - 0.0
29/12:00pm 34.7 30.2 4.3 15 16.4 NNW 17 22 9 12 1015.2 1012.7 0.0
29/11:30am 34.9 30.1 4.4 15 16.5 NW 19 26 10 14 1015.3 - 0.0
29/11:00am 35.4 31.6 3.8 14 17.0 N 13 20 7 11 1015.3 - 0.0
29/10:30am 34.8 31.5 4.4 15 16.4 NNW 11 19 6 10 1015.5 - 0.0
29/10:00am 34.8 31.5 4.4 15 16.4 NNE 11 19 6 10 1015.6 - 0.0
29/09:30am 34.7 31.5 5.2 16 16.1 NNE 11 15 6 8 1015.6 - 0.0
29/09:00am 33.9 30.2 4.6 16 15.8 NE 13 20 7 11 1015.7 1013.2 0.0
29/08:30am 33.4 29.8 5.0 17 15.4 NNE 13 20 7 11 1015.9 - 0.0
29/08:00am 32.6 28.1 4.4 17 15.0 NNE 17 22 9 12 1015.8 - 0.0
29/07:30am 30.6 25.8 4.4 19 13.8 NE 19 24 10 13 1015.5 - 0.0
29/07:00am 28.0 24.3 4.3 22 12.3 ENE 13 22 7 12 1015.2 - 0.0
29/06:30am 27.4 24.9 4.5 23 11.9 E 7 17 4 9 1015.4 - 0.0
29/06:00am 26.4 22.9 3.6 23 11.6 ESE 11 15 6 8 1015.1 1012.6 0.0
29/05:30am 26.0 22.6 3.9 24 11.2 SE 11 15 6 8 1014.9 - 0.0
29/05:00am 25.5 22.0 3.5 24 11.1 SE 11 13 6 7 1014.8 - 0.0
29/04:30am 25.0 21.5 3.6 25 10.8 E 11 15 6 8 1014.7 - 0.0
29/04:00am 24.7 20.8 3.4 25 10.7 ESE 13 15 7 8 1014.4 - 0.0
29/03:30am 24.3 20.8 3.6 26 10.4 ESE 11 13 6 7 1014.2 - 0.0
29/03:00am 25.3 21.0 3.3 24 11.0 ESE 15 20 8 11 1014.1 1011.7 0.0
29/02:30am 25.9 21.3 3.8 24 11.2 ESE 17 20 9 11 1014.3 - 0.0
29/02:00am 26.6 21.6 3.8 23 11.6 ESE 19 26 10 14 1014.2 - 0.0
29/01:30am 27.3 22.3 3.7 22 12.1 E 19 26 10 14 1014.6 - 0.0
29/01:00am 27.9 22.9 3.6 21 12.4 ESE 19 26 10 14 1014.4 - 0.0
29/12:30am 28.0 23.0 3.7 21 12.5 ESE 19 24 10 13 1014.8 - 0.0
29/12:00am 28.1 23.9 3.7 21 12.5 E 15 20 8 11 1015.0 1012.5 0.0

Other Formats:

Comma delimited format used in spreadsheet applications
http://www.bom.gov.au/fwo/IDW60801/IDW60801.94457.axf

JavaScript Object Notation format (JSON) in row-major order
http://www.bom.gov.au/fwo/IDW60801/IDW60801.94457.json